Time;durP1;ratioP1;P1;durP2;ratioP2;P2;SDS_P1;SDS_P2;PMS_P1;PMS_P2;Temp;Humidity;BMP_temperature;BMP_pressure;BME280_temperature;BME280_humidity;BME280_pressure;Samples;Min_cycle;Max_cycle;Signal;HPM_P1;HPM_P2
2021/12/11 00:01:19;;;;;;;31.10;17.02;;;;;;;4.52;86.45;99037.06;5092100;28;20153;-38
2021/12/11 00:03:48;;;;;;;32.37;15.87;;;;;;;4.36;87.08;99038.06;5092643;28;20044;-39
2021/12/11 00:06:24;;;;;;;27.95;15.50;;;;;;;4.46;86.53;99050.97;5093169;28;20434;-38
2021/12/11 00:08:51;;;;;;;28.00;14.95;;;;;;;4.27;88.27;99039.94;5093279;28;20031;-38
2021/12/11 00:11:26;;;;;;;27.10;14.20;;;;;;;4.18;87.54;99038.38;5092754;28;20028;-38
2021/12/11 00:13:53;;;;;;;31.33;15.75;;;;;;;4.34;87.86;99045.34;5091451;28;20502;-37
2021/12/11 00:16:19;;;;;;;30.67;16.23;;;;;;;4.40;88.37;99056.94;5092625;28;20545;-38
2021/12/11 00:18:49;;;;;;;31.42;16.58;;;;;;;4.74;87.40;99069.63;5092920;28;20020;-37
2021/12/11 00:21:16;;;;;;;30.52;15.65;;;;;;;4.74;87.23;99084.59;5075238;28;20042;-38
2021/12/11 00:23:49;;;;;;;27.05;14.43;;;;;;;4.46;87.35;99087.84;5091276;28;20024;-38
2021/12/11 00:26:25;;;;;;;25.67;14.45;;;;;;;4.25;88.31;99086.72;5092195;28;20020;-39
2021/12/11 00:28:50;;;;;;;28.83;15.45;;;;;;;4.22;87.07;99087.06;5091706;28;20035;-38
2021/12/11 00:31:16;;;;;;;29.25;15.95;;;;;;;4.18;88.12;99092.88;5092316;28;20024;-38
2021/12/11 00:33:42;;;;;;;26.88;14.95;;;;;;;4.14;88.41;99099.50;5092362;28;20099;-38
2021/12/11 00:36:12;;;;;;;32.03;15.05;;;;;;;4.14;87.50;99102.94;5090700;28;20082;-38
2021/12/11 00:38:38;;;;;;;29.40;15.25;;;;;;;4.31;87.03;99096.53;5092151;28;20024;-38
2021/12/11 00:41:05;;;;;;;26.85;15.32;;;;;;;4.29;86.88;99103.81;5091560;28;20020;-39
2021/12/11 00:43:34;;;;;;;28.30;15.60;;;;;;;4.16;88.18;99100.97;5090986;28;20016;-38
2021/12/11 00:45:59;;;;;;;27.58;16.10;;;;;;;4.53;87.29;99093.22;5092233;28;20113;-38
2021/12/11 00:48:26;;;;;;;29.23;15.48;;;;;;;4.71;87.41;99091.06;5092409;28;20028;-38
2021/12/11 00:50:54;;;;;;;27.02;15.18;;;;;;;4.44;87.72;99093.31;5091996;28;20514;-38
2021/12/11 00:53:24;;;;;;;27.15;15.57;;;;;;;4.37;87.90;99099.47;5091898;28;20073;-38
2021/12/11 00:55:52;;;;;;;29.27;16.15;;;;;;;4.55;87.30;99088.56;5091364;28;20044;-38
2021/12/11 00:58:32;;;;;;;29.10;16.42;;;;;;;4.69;86.51;99077.25;5091680;28;20040;-38
2021/12/11 01:00:59;;;;;;;28.02;15.23;;;;;;;4.67;86.21;99081.88;5091814;28;20024;-38
2021/12/11 01:03:29;;;;;;;26.05;14.18;;;;;;;4.60;86.18;99078.31;5091934;28;20139;-38
2021/12/11 01:05:55;;;;;;;23.60;13.48;;;;;;;4.79;86.32;99074.31;5090678;28;20540;-38
2021/12/11 01:08:32;;;;;;;21.02;12.55;;;;;;;4.86;86.54;99075.25;5091983;28;20055;-38
2021/12/11 01:11:18;;;;;;;21.02;11.57;;;;;;;5.12;85.90;99066.00;5091708;28;20040;-39
2021/12/11 01:13:54;;;;;;;22.73;13.00;;;;;;;4.95;85.79;99068.03;5091650;28;20107;-39
2021/12/11 01:16:21;;;;;;;18.48;10.88;;;;;;;5.20;85.72;99065.94;5091714;28;20028;-38
2021/12/11 01:18:49;;;;;;;17.80;10.98;;;;;;;5.43;83.55;99061.31;5091736;28;20034;-38
2021/12/11 01:21:43;;;;;;;20.67;11.52;;;;;;;5.44;83.83;99064.75;5091631;28;20024;-38
2021/12/11 01:24:27;;;;;;;19.35;10.93;;;;;;;5.20;84.52;99066.75;5091637;28;20020;-39
2021/12/11 01:26:53;;;;;;;22.65;13.07;;;;;;;6.03;91.31;99071.66;5090578;28;20032;-38
2021/12/11 01:29:19;;;;;;;17.90;11.05;;;;;;;5.40;84.57;99069.59;5091616;28;20024;-38
2021/12/11 01:31:46;;;;;;;21.40;13.20;;;;;;;5.34;84.92;99074.81;5091288;28;20028;-39
2021/12/11 01:34:11;;;;;;;21.23;12.30;;;;;;;4.90;86.82;99074.69;5091041;28;20031;-39
2021/12/11 01:36:37;;;;;;;20.17;12.10;;;;;;;4.92;88.17;99076.34;5089676;28;20028;-39
2021/12/11 01:39:07;;;;;;;21.20;11.95;;;;;;;4.79;87.39;99074.31;5089828;28;20093;-39
2021/12/11 01:41:32;;;;;;;;;;;;;;;4.61;87.36;99066.78;5091177;28;20428;-38
2021/12/11 01:43:59;;;;;;;20.55;12.63;;;;;;;4.67;87.54;99064.22;5090119;28;19953;-38
2021/12/11 01:46:25;;;;;;;21.88;12.35;;;;;;;4.95;86.38;99055.69;5090521;28;20544;-38
2021/12/11 01:48:56;;;;;;;25.50;12.73;;;;;;;5.12;84.53;99050.19;5090593;28;20035;-38
2021/12/11 01:51:34;;;;;;;26.58;13.95;;;;;;;5.43;90.51;99049.94;5088858;28;20082;-38
2021/12/11 01:54:19;;;;;;;20.25;11.50;;;;;;;5.93;84.24;99058.75;5088297;28;20020;-38
2021/12/11 01:56:47;;;;;;;19.55;11.30;;;;;;;5.38;83.96;99065.50;5069655;28;20063;-38
2021/12/11 01:59:21;;;;;;;21.48;11.27;;;;;;;5.29;82.84;99068.28;5068712;28;20032;-38
2021/12/11 02:02:00;;;;;;;20.98;12.27;;;;;;;5.08;83.85;99061.13;5070173;28;20025;-38
2021/12/11 02:04:26;;;;;;;24.77;14.13;;;;;;;5.29;83.45;99049.81;5070004;28;20525;-38
2021/12/11 02:06:52;;;;;;;23.75;14.23;;;;;;;5.67;83.45;99048.75;5070006;28;20462;-38
2021/12/11 02:09:24;;;;;;;23.67;13.70;;;;;;;5.42;84.03;99051.75;5070064;28;20058;-38
2021/12/11 02:11:51;;;;;;;22.65;13.68;;;;;;;5.21;82.62;99049.88;5068537;28;20029;-39
2021/12/11 02:14:23;;;;;;;23.77;14.35;;;;;;;5.01;83.45;99057.59;5069544;28;20020;-38
2021/12/11 02:16:50;;;;;;;24.40;13.70;;;;;;;4.62;85.52;99048.13;5069825;28;20107;-38
2021/12/11 02:19:16;;;;;;;25.48;14.50;;;;;;;4.72;85.82;99055.78;5069950;28;20024;-39
2021/12/11 02:22:00;;;;;;;25.38;15.07;;;;;;;4.68;84.76;99063.25;5069881;28;20090;-38
2021/12/11 02:24:34;;;;;;;25.98;13.98;;;;;;;4.87;83.89;99055.78;5068797;28;20024;-38
2021/12/11 02:26:59;;;;;;;20.35;12.50;;;;;;;4.69;83.14;99066.69;5068541;28;20039;-39
2021/12/11 02:29:32;;;;;;;23.02;12.73;;;;;;;4.59;83.48;99058.22;5070193;28;20028;-38
2021/12/11 02:31:59;;;;;;;24.17;13.10;;;;;;;4.61;83.37;99056.25;5070235;28;20056;-38
2021/12/11 02:34:49;;;;;;;22.73;12.52;;;;;;;4.49;84.81;99058.50;5070075;28;20020;-38
2021/12/11 02:37:18;;;;;;;23.25;12.38;;;;;;;4.27;85.54;99052.31;5070340;28;20028;-40
2021/12/11 02:39:52;;;;;;;24.17;12.47;;;;;;;4.42;89.17;99060.25;5078120;28;20024;-38
2021/12/11 02:42:33;;;;;;;22.02;11.70;;;;;;;4.60;85.99;99051.97;5089520;28;20288;-39
2021/12/11 02:45:26;;;;;;;20.00;11.70;;;;;;;4.64;83.97;99035.59;5089445;28;20028;-39
2021/12/11 02:47:58;;;;;;;21.20;11.50;;;;;;;4.64;83.27;99040.06;5089940;28;20492;-38
2021/12/11 02:50:48;;;;;;;21.83;11.32;;;;;;;4.67;83.90;99051.06;5088991;28;20039;-42
2021/12/11 02:53:27;;;;;;;19.98;10.93;;;;;;;4.50;83.94;99049.59;5086998;28;20020;-39
2021/12/11 02:56:18;;;;;;;21.40;11.00;;;;;;;4.67;89.63;99048.44;5086955;28;20028;-40
2021/12/11 02:58:45;;;;;;;17.85;10.13;;;;;;;5.02;83.48;99045.22;5089059;28;20036;-39
2021/12/11 03:01:28;;;;;;;16.42;10.18;;;;;;;4.74;81.61;99037.16;5087669;28;20027;-40
2021/12/11 03:04:04;;;;;;;20.00;11.13;;;;;;;4.43;84.12;99044.22;5088945;28;20044;-39
2021/12/11 03:06:38;;;;;;;18.60;10.75;;;;;;;4.22;85.00;99044.94;5089218;28;20502;-40
2021/12/11 03:09:03;;;;;;;18.33;10.10;;;;;;;4.07;86.82;99059.88;5089531;28;20036;-38
2021/12/11 03:11:30;;;;;;;18.02;10.23;;;;;;;4.04;87.47;99060.25;5089088;28;20472;-38
2021/12/11 03:13:56;;;;;;;16.75;10.10;;;;;;;4.42;91.60;99052.34;5089174;28;20047;-38
2021/12/11 03:16:24;;;;;;;16.85;9.75;;;;;;;4.77;86.42;99053.41;5089145;28;20024;-39
2021/12/11 03:18:49;;;;;;;16.05;9.75;;;;;;;4.56;84.26;99035.69;5089276;28;20031;-39
2021/12/11 03:21:15;;;;;;;17.50;9.82;;;;;;;4.59;84.96;99024.81;5088687;28;20038;-39
2021/12/11 03:23:40;;;;;;;17.20;9.85;;;;;;;4.35;84.76;99017.97;5088160;28;20471;-39
2021/12/11 03:26:06;;;;;;;17.73;9.85;;;;;;;4.09;86.20;99016.59;5089217;28;20024;-38
2021/12/11 03:28:31;;;;;;;18.50;9.90;;;;;;;4.03;87.42;99016.47;5089209;28;20577;-39
2021/12/11 03:30:59;;;;;;;18.60;9.85;;;;;;;4.01;85.84;99019.28;5088985;28;20028;-38
2021/12/11 03:33:30;;;;;;;17.73;10.77;;;;;;;4.55;89.96;99020.91;5089089;28;20479;-38
2021/12/11 03:35:56;;;;;;;16.42;10.15;;;;;;;4.26;84.97;99006.69;5089811;28;20029;-38
2021/12/11 03:38:22;;;;;;;15.82;9.80;;;;;;;4.15;86.62;99009.78;5089638;28;20046;-38
2021/12/11 03:40:49;;;;;;;15.50;9.68;;;;;;;4.08;86.31;99004.41;5089515;28;20492;-39
2021/12/11 03:43:16;;;;;;;17.77;10.50;;;;;;;4.09;87.67;99016.59;5088821;28;20102;-38
2021/12/11 03:45:42;;;;;;;21.90;11.43;;;;;;;4.11;86.39;99017.22;5089414;28;20028;-39
2021/12/11 03:48:16;;;;;;;22.80;12.70;;;;;;;4.35;84.77;99033.78;5089123;28;20128;-39
2021/12/11 03:50:42;;;;;;;19.73;11.45;;;;;;;4.20;86.02;99041.66;5089512;28;20656;-39
2021/12/11 03:53:08;;;;;;;17.88;10.45;;;;;;;4.23;85.83;99054.47;5088071;28;20020;-39
2021/12/11 03:55:38;;;;;;;20.10;10.85;;;;;;;4.03;85.93;99061.25;5088797;28;20016;-39
2021/12/11 03:58:04;;;;;;;17.33;10.70;;;;;;;4.06;86.79;99066.97;5089428;28;20035;-39
2021/12/11 04:00:32;;;;;;;17.48;9.65;;;;;;;4.04;86.20;99065.53;5089100;28;20028;-39
2021/12/11 04:03:03;;;;;;;17.48;9.77;;;;;;;4.04;86.38;99047.91;5092318;28;20085;-39
2021/12/11 04:05:33;;;;;;;15.68;9.48;;;;;;;3.91;86.13;99055.59;5092644;28;20123;-38
2021/12/11 04:07:59;;;;;;;16.90;10.27;;;;;;;3.97;88.02;99067.22;5092771;28;20050;-37
2021/12/11 04:10:27;;;;;;;15.75;9.63;;;;;;;4.11;86.65;99077.81;5092936;28;20060;-38
2021/12/11 04:12:53;;;;;;;16.75;9.60;;;;;;;4.02;86.39;99078.06;5092745;28;20361;-38
2021/12/11 04:15:19;;;;;;;15.07;9.48;;;;;;;3.95;87.88;99063.94;5092855;28;20028;-38
2021/12/11 04:17:44;;;;;;;14.65;9.55;;;;;;;4.05;86.76;99061.88;5093021;28;20043;-38
2021/12/11 04:20:14;;;;;;;17.45;10.18;;;;;;;4.18;86.35;99046.28;5092749;28;20028;-38
2021/12/11 04:22:39;;;;;;;19.40;11.05;;;;;;;4.21;84.98;99043.31;5092506;28;20028;-38
2021/12/11 04:25:06;;;;;;;17.42;10.48;;;;;;;4.10;86.49;99033.22;5093019;28;20052;-38
2021/12/11 04:27:32;;;;;;;17.98;10.82;;;;;;;4.03;86.58;99021.75;5092934;28;20081;-38
2021/12/11 04:29:58;;;;;;;18.63;10.90;;;;;;;3.99;86.91;99029.19;5091728;28;20028;-38
2021/12/11 04:32:28;;;;;;;19.05;10.95;;;;;;;4.11;87.78;99033.03;5092626;28;20020;-38
2021/12/11 04:34:53;;;;;;;20.50;12.02;;;;;;;4.11;88.15;99037.47;5092531;28;20035;-38
2021/12/11 04:37:22;;;;;;;18.88;11.57;;;;;;;4.17;86.39;99034.13;5092199;28;20036;-38
2021/12/11 04:39:56;;;;;;;20.27;11.50;;;;;;;4.19;87.66;99026.88;5091756;28;20028;-38
2021/12/11 04:44:49;;;;;;;21.67;12.57;;;;;;;4.68;92.25;99018.44;5091855;28;20107;-39
2021/12/11 04:50:04;;;;;;;22.50;13.35;;;;;;;5.22;86.54;99000.59;5091847;28;20130;-39
2021/12/11 04:52:41;;;;;;;22.10;12.55;;;;;;;5.47;86.25;99004.50;5092066;28;20121;-39
2021/12/11 05:00:47;;;;;;;20.27;11.35;;;;;;;6.32;80.12;98986.13;5091958;28;20063;-39
2021/12/11 05:11:33;;;;;;;22.05;13.40;;;;;;;5.12;80.17;99010.63;5091689;28;20031;-39
2021/12/11 05:13:58;;;;;;;28.45;14.45;;;;;;;4.87;82.15;99008.31;5091813;28;20027;-40
2021/12/11 05:16:24;;;;;;;26.08;14.85;;;;;;;4.54;84.61;99000.00;5091661;28;20032;-39
2021/12/11 05:18:49;;;;;;;31.92;17.75;;;;;;;4.50;85.33;98976.63;5091769;28;20055;-39
2021/12/11 05:21:17;;;;;;;30.50;16.20;;;;;;;4.30;84.65;98978.19;5090384;28;20032;-39
2021/12/11 05:23:42;;;;;;;30.75;15.35;;;;;;;4.30;86.69;98973.75;5091143;28;20157;-39
2021/12/11 05:26:08;;;;;;;28.70;16.40;;;;;;;4.44;84.76;98971.28;5091227;28;20032;-40
2021/12/11 05:28:33;;;;;;;33.97;16.67;;;;;;;4.41;85.60;98974.28;5091302;28;20043;-39
2021/12/11 05:31:00;;;;;;;29.25;14.73;;;;;;;4.44;85.02;98958.13;5091039;28;20451;-39
2021/12/11 05:33:26;;;;;;;28.50;15.05;;;;;;;4.27;85.17;98968.84;5091075;28;20463;-40
2021/12/11 05:35:51;;;;;;;24.35;14.38;;;;;;;4.37;85.78;98968.56;5091032;28;20032;-39
2021/12/11 05:38:18;;;;;;;29.65;15.45;;;;;;;4.24;85.97;98974.44;5091168;28;20032;-39
2021/12/11 05:40:47;;;;;;;26.42;13.95;;;;;;;7.75;85.48;98983.50;5090976;28;20028;-39
2021/12/11 05:43:12;;;;;;;30.75;16.52;;;;;;;6.46;75.42;98989.66;5091256;28;20016;-39
2021/12/11 05:45:38;;;;;;;61.50;32.75;;;;;;;5.31;80.20;98998.66;5090992;28;20045;-38
2021/12/11 05:48:04;;;;;;;43.55;23.20;;;;;;;4.90;82.41;99008.75;5091219;28;20024;-39
2021/12/11 05:50:33;;;;;;;47.05;23.90;;;;;;;4.98;84.66;98978.84;5090982;28;20027;-39
2021/12/11 05:52:59;;;;;;;77.90;41.00;;;;;;;5.09;82.51;98986.25;5090843;28;20020;-40
2021/12/11 05:55:25;;;;;;;61.88;30.73;;;;;;;4.88;82.91;98999.41;5090859;28;20035;-40
2021/12/11 05:57:54;;;;;;;27.13;15.50;;;;;;;4.56;83.54;99004.06;5090936;28;20043;-39
2021/12/11 06:00:33;;;;;;;24.92;13.85;;;;;;;4.53;83.99;98985.97;5090040;28;20078;-39
2021/12/11 06:02:59;;;;;;;24.88;13.95;;;;;;;4.52;83.59;98984.38;5090857;28;20035;-39
2021/12/11 06:05:25;;;;;;;26.13;14.55;;;;;;;4.69;84.47;98991.06;5089323;28;20055;-40
2021/12/11 06:07:52;;;;;;;23.88;13.10;;;;;;;4.82;84.91;98995.69;5090628;28;20031;-39
2021/12/11 06:10:18;;;;;;;24.13;13.90;;;;;;;4.80;84.50;98996.91;5089360;28;20047;-38
2021/12/11 06:12:44;;;;;;;26.48;15.23;;;;;;;4.98;83.23;98997.28;5090305;28;20028;-39
2021/12/11 06:15:10;;;;;;;25.52;14.82;;;;;;;4.86;83.11;98993.50;5089890;28;20093;-39
2021/12/11 06:17:35;;;;;;;26.13;15.38;;;;;;;4.82;83.54;98985.16;5089083;28;20032;-39
2021/12/11 06:20:03;;;;;;;22.55;13.73;;;;;;;4.90;84.04;98976.31;5090147;28;20093;-39
2021/12/11 06:22:31;;;;;;;23.00;14.10;;;;;;;5.26;83.17;98980.75;5089219;28;20035;-40
2021/12/11 06:24:58;;;;;;;24.02;13.85;;;;;;;5.58;82.63;98978.59;5089720;28;20058;-39
2021/12/11 06:27:24;;;;;;;24.58;13.50;;;;;;;5.63;81.91;98976.22;5089942;28;20111;-39
2021/12/11 06:29:50;;;;;;;23.77;14.13;;;;;;;6.25;81.15;98990.53;5090570;28;20032;-40
2021/12/11 06:32:15;;;;;;;18.25;11.50;;;;;;;6.23;78.62;98984.63;5088526;28;20084;-38
2021/12/11 06:34:41;;;;;;;21.50;12.77;;;;;;;6.33;80.25;98989.56;5089883;28;20153;-39
2021/12/11 06:37:07;;;;;;;25.00;14.65;;;;;;;7.31;79.88;98986.69;5090133;28;20036;-39
2021/12/11 06:39:33;;;;;;;22.50;13.25;;;;;;;8.11;73.79;98990.22;5089939;28;20110;-38
2021/12/11 06:42:00;;;;;;;19.05;11.85;;;;;;;7.69;73.92;99008.16;5088062;28;20024;-37
2021/12/11 06:44:28;;;;;;;20.08;11.60;;;;;;;7.97;75.17;98992.03;5088918;28;20367;-38
2021/12/11 06:46:58;;;;;;;34.58;19.95;;;;;;;8.27;73.60;98982.84;5088849;28;20491;-39
2021/12/11 06:49:24;;;;;;;56.38;28.15;;;;;;;8.46;70.42;98982.03;5088092;28;20072;-41
2021/12/11 06:51:50;;;;;;;32.80;18.13;;;;;;;8.77;69.05;98991.09;5088000;28;20123;-38
2021/12/11 06:54:16;;;;;;;19.30;11.68;;;;;;;9.64;72.18;98983.47;5088116;28;20016;-39
2021/12/11 06:56:41;;;;;;;14.00;9.32;;;;;;;9.30;64.75;98976.75;5087797;28;20043;-39
2021/12/11 06:59:07;;;;;;;15.00;9.93;;;;;;;8.78;66.93;98971.50;5087701;28;20056;-38
2021/12/11 07:01:32;;;;;;;21.83;12.57;;;;;;;8.96;69.51;98974.28;5086204;28;20105;-39
2021/12/11 07:03:59;;;;;;;40.70;21.92;;;;;;;9.36;69.98;98973.25;5086936;28;20070;-38
2021/12/11 07:06:26;;;;;;;21.88;13.82;;;;;;;9.07;67.77;98972.81;5087605;28;20038;-38
2021/12/11 07:08:53;;;;;;;25.17;14.82;;;;;;;9.28;69.13;98976.97;5087689;28;20063;-40
2021/12/11 07:11:18;;;;;;;24.20;14.18;;;;;;;9.28;65.61;98957.56;5088247;28;20024;-38
2021/12/11 07:13:45;;;;;;;22.00;13.15;;;;;;;9.07;66.54;98994.03;5089154;28;20054;-39
2021/12/11 07:16:11;;;;;;;20.77;12.80;;;;;;;8.85;69.86;98984.75;5088850;28;20036;-51
2021/12/11 07:18:36;;;;;;;21.80;13.70;;;;;;;8.92;69.36;98988.19;5088708;28;20032;-51
2021/12/11 07:21:02;;;;;;;21.80;13.75;;;;;;;9.07;71.43;98987.91;5087725;28;20023;-51
2021/12/11 07:23:27;;;;;;;22.17;14.32;;;;;;;9.53;68.10;98992.94;5070330;28;20136;-48
2021/12/11 07:26:05;;;;;;;21.58;13.43;;;;;;;9.79;67.17;98999.91;5088466;28;20056;-50
2021/12/11 07:28:30;;;;;;;23.63;14.18;;;;;;;9.27;67.29;98987.78;5087427;28;20387;-53
2021/12/11 07:30:57;;;;;;;19.95;13.18;;;;;;;9.28;67.25;98984.94;5088433;28;20055;-51
2021/12/11 07:33:23;;;;;;;18.52;11.65;;;;;;;9.33;67.56;98979.81;5088438;28;20093;-47
2021/12/11 07:35:49;;;;;;;18.00;11.18;;;;;;;9.46;65.15;98967.44;5080682;28;20031;-48
2021/12/11 07:38:14;;;;;;;18.08;11.20;;;;;;;9.38;66.89;98969.34;5071928;28;20114;-50
2021/12/11 07:40:53;;;;;;;19.02;11.50;;;;;;;9.51;67.47;98962.31;5070757;28;20028;-38
2021/12/11 07:43:18;;;;;;;17.75;10.90;;;;;;;9.72;66.67;98953.97;5070686;28;20021;-38
2021/12/11 07:45:44;;;;;;;19.23;9.95;;;;;;;9.88;65.35;98935.84;5072016;28;20040;-38
2021/12/11 07:48:10;;;;;;;14.73;9.43;;;;;;;9.95;64.35;98948.03;5071848;28;20130;-38
2021/12/11 07:50:36;;;;;;;14.60;9.73;;;;;;;9.72;67.00;98958.47;5070757;28;20032;-38
2021/12/11 07:53:01;;;;;;;17.17;10.15;;;;;;;9.87;66.90;98953.66;5053940;28;20039;-40
2021/12/11 07:55:26;;;;;;;16.52;9.68;;;;;;;10.67;64.96;98950.19;5082073;28;20467;-39
2021/12/11 07:57:52;;;;;;;14.63;8.60;;;;;;;10.70;66.00;98940.94;5092528;28;20039;-38
2021/12/11 08:00:21;;;;;;;13.93;8.60;;;;;;;10.61;62.78;98934.31;5090948;28;20031;-38
2021/12/11 08:02:47;;;;;;;109.78;55.05;;;;;;;10.57;64.89;98961.38;5091794;28;20032;-38
2021/12/11 08:05:13;;;;;;;18.70;11.00;;;;;;;10.34;65.25;98940.75;5091672;28;20039;-40
2021/12/11 08:07:38;;;;;;;14.73;9.35;;;;;;;10.10;66.40;98941.59;5091912;28;20027;-39
2021/12/11 08:10:06;;;;;;;14.55;9.20;;;;;;;10.57;64.24;98939.28;5092217;28;20045;-38
2021/12/11 08:12:31;;;;;;;15.43;9.48;;;;;;;10.48;63.74;98937.94;5090886;28;20020;-38
2021/12/11 08:14:57;;;;;;;15.57;9.10;;;;;;;10.26;65.64;98945.50;5091804;28;20044;-38
2021/12/11 08:17:22;;;;;;;13.95;8.95;;;;;;;10.15;65.34;98936.44;5092471;28;20032;-39
2021/12/11 08:19:48;;;;;;;17.23;10.20;;;;;;;9.61;68.45;98938.72;5092088;28;20062;-39
2021/12/11 08:22:13;;;;;;;14.48;9.57;;;;;;;9.61;67.91;98933.41;5091303;28;20024;-40
2021/12/11 08:24:39;;;;;;;21.08;11.05;;;;;;;9.60;68.61;98926.50;5091762;28;20126;-40
2021/12/11 08:27:11;;;;;;;12.95;9.27;;;;;;;10.87;65.05;98935.81;5091397;28;20043;-38
2021/12/11 08:29:37;;;;;;;16.20;9.77;;;;;;;10.60;70.30;98930.03;5091741;28;20052;-39
2021/12/11 08:32:03;;;;;;;21.48;12.13;;;;;;;10.57;65.83;98950.72;5089906;28;20062;-38
2021/12/11 08:34:29;;;;;;;25.92;13.60;;;;;;;10.11;67.88;98933.41;5088802;28;20025;-38
2021/12/11 08:36:54;;;;;;;28.88;16.15;;;;;;;10.43;68.47;98927.16;5078814;28;20078;-38
2021/12/11 08:39:21;;;;;;;30.77;17.05;;;;;;;10.19;66.30;98932.28;5083419;28;20389;-37
2021/12/11 08:41:47;;;;;;;34.97;18.88;;;;;;;10.14;66.95;98924.16;5071231;28;20047;-37
2021/12/11 08:44:14;;;;;;;28.00;16.40;;;;;;;10.99;64.14;98927.91;5069953;28;20017;-39
2021/12/11 08:46:44;;;;;;;25.85;16.17;;;;;;;10.69;64.72;98912.72;5069176;28;20103;-39
2021/12/11 08:49:14;;;;;;;24.95;15.32;;;;;;;10.72;66.28;98922.94;5069844;28;20169;-38
2021/12/11 08:51:41;;;;;;;;;;;;;;;10.73;65.11;98908.56;5071694;28;20412;-40
2021/12/11 08:54:07;;;;;;;25.88;15.65;;;;;;;10.28;66.21;98911.53;5069826;28;19908;-39
2021/12/11 08:56:34;;;;;;;29.45;16.38;;;;;;;10.34;66.32;98890.22;5073024;28;20047;-39
2021/12/11 08:59:00;;;;;;;29.70;15.52;;;;;;;10.40;66.48;98891.19;5091022;28;20462;-40
2021/12/11 09:01:28;;;;;;;27.80;15.07;;;;;;;10.55;66.55;98915.53;5086397;28;20016;-38
2021/12/11 09:04:12;;;;;;;27.60;15.98;;;;;;;10.60;67.30;98911.41;5089882;28;20047;-39
2021/12/11 09:06:39;;;;;;;27.17;15.60;;;;;;;10.51;67.76;98887.78;5090445;28;20486;-39
2021/12/11 09:09:29;;;;;;;28.42;14.82;;;;;;;10.86;66.77;98875.66;5091030;28;20045;-39
2021/12/11 09:11:58;;;;;;;27.70;15.80;;;;;;;11.15;65.83;98871.31;5090884;28;20030;-39
2021/12/11 09:14:54;;;;;;;25.67;13.53;;;;;;;11.73;66.68;98862.59;5082795;28;20051;-39
2021/12/11 09:17:21;;;;;;;27.65;14.52;;;;;;;11.99;63.18;98859.69;5065682;28;20379;-39
2021/12/11 09:19:53;;;;;;;28.15;13.48;;;;;;;11.85;63.73;98845.78;5070552;28;20032;-38
2021/12/11 09:22:33;;;;;;;24.77;14.13;;;;;;;11.65;63.22;98835.47;5070161;28;20024;-49
2021/12/11 09:25:07;;;;;;;25.08;14.57;;;;;;;12.09;61.92;98828.72;5070002;28;20530;-49
2021/12/11 09:27:35;;;;;;;21.95;13.43;;;;;;;12.21;62.09;98825.22;5082007;28;20491;-49
2021/12/11 09:30:14;;;;;;;24.52;12.98;;;;;;;12.32;62.07;98813.72;5090333;28;20108;-50
2021/12/11 09:32:46;;;;;;;22.80;11.48;;;;;;;12.68;60.65;98809.84;5090482;28;20043;-51
2021/12/11 09:35:25;;;;;;;17.83;10.25;;;;;;;12.69;61.14;98794.63;5089176;28;20049;-50
2021/12/11 09:37:56;;;;;;;18.42;8.65;;;;;;;12.29;63.81;98796.31;5090593;28;20035;-49
2021/12/11 09:40:36;;;;;;;15.68;6.82;;;;;;;12.04;66.55;98783.28;5090516;28;20052;-49
2021/12/11 09:43:02;;;;;;;15.02;7.55;;;;;;;12.37;64.64;98789.78;5089361;28;20271;-50
2021/12/11 09:45:30;;;;;;;15.38;7.32;;;;;;;12.29;64.72;98782.97;5068736;28;20533;-50
2021/12/11 09:48:02;;;;;;;13.48;8.05;;;;;;;12.20;65.24;98787.06;5069872;28;20028;-48
2021/12/11 09:50:34;;;;;;;20.80;8.80;;;;;;;12.37;64.44;98783.63;5069679;28;20024;-52
2021/12/11 09:53:00;;;;;;;19.50;9.65;;;;;;;12.27;64.78;98792.25;5068205;28;20082;-51
2021/12/11 09:55:33;;;;;;;14.68;9.63;;;;;;;12.48;63.37;98796.13;5059381;28;20028;-50
2021/12/11 09:58:00;;;;;;;16.38;9.20;;;;;;;12.45;63.99;98797.41;5069293;28;20032;-50
2021/12/11 10:01:03;;;;;;;17.10;8.80;;;;;;;12.15;65.63;98789.63;5068783;28;20511;-49
2021/12/11 10:03:30;;;;;;;22.20;9.95;;;;;;;12.11;65.59;98788.50;5089485;28;20104;-53
2021/12/11 10:06:10;;;;;;;16.20;9.75;;;;;;;12.56;65.22;98781.59;5089839;28;20028;-51
2021/12/11 10:08:39;;;;;;;17.15;8.80;;;;;;;12.41;64.71;98782.91;5089841;28;20115;-48
2021/12/11 10:11:08;;;;;;;14.25;8.85;;;;;;;12.37;65.42;98778.31;5089966;28;20024;-49
2021/12/11 10:13:36;;;;;;;12.45;7.60;;;;;;;12.45;66.54;98770.75;5089106;28;20035;-50
2021/12/11 10:16:02;;;;;;;14.38;7.30;;;;;;;13.15;64.25;98768.66;5088316;28;20043;-49
2021/12/11 10:18:28;;;;;;;17.15;7.90;;;;;;;12.90;64.27;98779.75;5089048;28;20019;-48
2021/12/11 10:21:01;;;;;;;16.50;7.30;;;;;;;12.97;64.50;98760.94;5089080;28;20092;-49
2021/12/11 10:23:28;;;;;;;12.52;7.28;;;;;;;12.40;66.65;98762.63;5089018;28;20214;-48
2021/12/11 10:25:54;;;;;;;14.05;6.97;;;;;;;12.28;67.41;98759.19;5089055;28;20024;-39
2021/12/11 10:28:23;;;;;;;12.88;7.15;;;;;;;12.33;68.09;98746.75;5089145;28;20097;-39
2021/12/11 10:30:51;;;;;;;16.98;7.50;;;;;;;12.38;68.21;98738.06;5089430;28;20432;-52
2021/12/11 10:33:18;;;;;;;12.82;6.75;;;;;;;12.56;68.83;98734.34;5088943;28;20028;-49
2021/12/11 10:35:46;;;;;;;13.88;7.22;;;;;;;12.33;69.35;98749.41;5089336;28;20104;-49
2021/12/11 10:38:12;;;;;;;71.03;34.60;;;;;;;12.41;68.84;98750.09;5089633;28;20150;-52
2021/12/11 10:40:40;;;;;;;35.42;17.35;;;;;;;12.37;69.30;98727.63;5089246;28;20589;-49
2021/12/11 10:43:09;;;;;;;18.15;8.57;;;;;;;12.45;69.57;98748.56;5089154;28;20187;-50
2021/12/11 10:45:34;;;;;;;13.10;7.47;;;;;;;12.42;69.32;98746.38;5088956;28;20027;-49
2021/12/11 10:48:03;;;;;;;16.85;8.25;;;;;;;12.67;68.89;98754.81;5087766;28;20028;-50
2021/12/11 10:50:32;;;;;;;17.55;8.40;;;;;;;12.68;68.84;98758.31;5087251;28;20107;-49
2021/12/11 10:52:58;;;;;;;15.85;7.32;;;;;;;12.69;68.52;98750.06;5088654;28;20059;-48
2021/12/11 10:55:26;;;;;;;18.65;8.55;;;;;;;12.64;68.52;98722.47;5088800;28;20048;-48
2021/12/11 10:57:53;;;;;;;18.67;7.95;;;;;;;12.57;68.93;98719.16;5087800;28;20028;-48
2021/12/11 11:00:24;;;;;;;14.38;8.35;;;;;;;12.68;69.05;98723.63;5087511;28;20035;-49
2021/12/11 11:02:49;;;;;;;15.75;9.40;;;;;;;12.49;69.74;98704.38;5087189;28;20036;-51
2021/12/11 11:05:17;;;;;;;19.33;9.23;;;;;;;12.61;69.08;98701.63;5086963;28;20177;-50
2021/12/11 11:07:43;;;;;;;18.20;9.18;;;;;;;12.91;67.91;98699.44;5088818;28;20391;-48
2021/12/11 11:10:13;;;;;;;18.38;8.80;;;;;;;12.71;69.85;98688.41;5088388;28;20110;-48
2021/12/11 11:12:39;;;;;;;12.25;5.03;;;;;;;12.43;73.78;98678.63;5091830;28;20089;-48
2021/12/11 11:15:05;;;;;;;12.50;4.85;;;;;;;12.94;72.99;98691.97;5090590;28;20057;-49
2021/12/11 11:17:32;;;;;;;12.65;4.43;;;;;;;12.79;74.81;98685.34;5091835;28;20035;-50
2021/12/11 11:19:57;;;;;;;12.18;3.17;;;;;;;12.68;76.29;98676.38;5092464;28;20028;-51
2021/12/11 11:22:25;;;;;;;9.05;3.10;;;;;;;12.68;76.82;98671.03;5092327;28;20031;-52
2021/12/11 11:25:13;;;;;;;12.73;3.38;;;;;;;12.88;76.81;98670.53;5092172;28;20650;-50
2021/12/11 11:27:39;;;;;;;8.68;3.03;;;;;;;12.85;76.57;98668.38;5088005;28;20488;-49
2021/12/11 11:30:09;;;;;;;7.65;3.13;;;;;;;12.85;77.29;98668.38;5092805;28;20463;-49
2021/12/11 11:32:35;;;;;;;11.13;3.20;;;;;;;13.77;74.03;98659.97;5091065;28;20028;-39
2021/12/11 11:35:03;;;;;;;6.68;3.10;;;;;;;13.45;74.84;98649.97;5092855;28;20039;-39
2021/12/11 11:37:29;;;;;;;7.95;3.28;;;;;;;13.39;74.98;98642.94;5092923;28;20673;-37
2021/12/11 11:39:55;;;;;;;9.15;3.13;;;;;;;13.57;74.71;98647.94;5092999;28;20099;-39
2021/12/11 11:42:20;;;;;;;8.23;3.13;;;;;;;13.55;74.71;98635.91;5091113;28;20028;-39
2021/12/11 11:44:46;;;;;;;12.40;6.32;;;;;;;13.45;75.52;98625.91;5091289;28;20463;-40
2021/12/11 11:47:13;;;;;;;11.43;3.80;;;;;;;13.54;74.90;98618.28;5091438;28;20024;-40
2021/12/11 11:49:39;;;;;;;10.07;3.40;;;;;;;13.43;75.85;98603.97;5090772;28;20027;-39
2021/12/11 11:52:10;;;;;;;7.85;3.70;;;;;;;13.79;74.20;98607.03;5090307;28;20031;-40
2021/12/11 11:54:37;;;;;;;7.60;4.10;;;;;;;13.75;74.89;98596.03;5092426;28;20103;-39